sensor_id;sensor_type;location;lat;lon;timestamp;P1;durP1;ratioP1;P2;durP2;ratioP2
40729;SDS011;26418;50.070;8.436;2022-07-29T00:02:09;4.03;;;1.48;;
40729;SDS011;26418;50.070;8.436;2022-07-29T00:04:35;2.75;;;1.42;;
40729;SDS011;26418;50.070;8.436;2022-07-29T00:07:01;5.55;;;1.65;;
40729;SDS011;26418;50.070;8.436;2022-07-29T00:09:27;6.07;;;1.40;;
40729;SDS011;26418;50.070;8.436;2022-07-29T00:11:53;3.22;;;1.50;;
40729;SDS011;26418;50.070;8.436;2022-07-29T00:14:21;3.85;;;1.45;;
40729;SDS011;26418;50.070;8.436;2022-07-29T00:16:47;2.55;;;1.60;;
40729;SDS011;26418;50.070;8.436;2022-07-29T00:19:12;2.63;;;1.60;;
40729;SDS011;26418;50.070;8.436;2022-07-29T00:21:38;4.18;;;1.48;;
40729;SDS011;26418;50.070;8.436;2022-07-29T00:24:03;3.72;;;1.60;;
40729;SDS011;26418;50.070;8.436;2022-07-29T00:26:29;2.72;;;1.30;;
40729;SDS011;26418;50.070;8.436;2022-07-29T00:28:57;5.13;;;1.67;;
40729;SDS011;26418;50.070;8.436;2022-07-29T00:31:26;4.28;;;1.80;;
40729;SDS011;26418;50.070;8.436;2022-07-29T00:33:51;5.85;;;1.73;;
40729;SDS011;26418;50.070;8.436;2022-07-29T00:36:17;3.08;;;2.00;;
40729;SDS011;26418;50.070;8.436;2022-07-29T00:38:42;3.53;;;1.52;;
40729;SDS011;26418;50.070;8.436;2022-07-29T00:41:10;3.65;;;1.70;;
40729;SDS011;26418;50.070;8.436;2022-07-29T00:43:36;2.63;;;1.80;;
40729;SDS011;26418;50.070;8.436;2022-07-29T00:46:02;3.17;;;1.48;;
40729;SDS011;26418;50.070;8.436;2022-07-29T00:48:27;3.13;;;1.90;;
40729;SDS011;26418;50.070;8.436;2022-07-29T00:50:53;7.47;;;1.80;;
40729;SDS011;26418;50.070;8.436;2022-07-29T00:53:19;4.90;;;2.00;;
40729;SDS011;26418;50.070;8.436;2022-07-29T00:55:46;3.47;;;2.00;;
40729;SDS011;26418;50.070;8.436;2022-07-29T00:58:12;6.47;;;2.28;;
40729;SDS011;26418;50.070;8.436;2022-07-29T01:00:38;5.43;;;1.88;;
40729;SDS011;26418;50.070;8.436;2022-07-29T01:03:06;5.13;;;2.42;;
40729;SDS011;26418;50.070;8.436;2022-07-29T01:05:32;3.38;;;1.90;;
40729;SDS011;26418;50.070;8.436;2022-07-29T01:07:58;7.95;;;2.13;;
40729;SDS011;26418;50.070;8.436;2022-07-29T01:10:25;4.82;;;1.88;;
40729;SDS011;26418;50.070;8.436;2022-07-29T01:12:51;3.58;;;1.63;;
40729;SDS011;26418;50.070;8.436;2022-07-29T01:15:19;7.53;;;2.45;;
40729;SDS011;26418;50.070;8.436;2022-07-29T01:31:18;5.07;;;1.90;;
40729;SDS011;26418;50.070;8.436;2022-07-29T01:33:57;5.38;;;2.28;;
40729;SDS011;26418;50.070;8.436;2022-07-29T01:36:34;3.72;;;2.30;;
40729;SDS011;26418;50.070;8.436;2022-07-29T01:39:05;3.70;;;2.00;;
40729;SDS011;26418;50.070;8.436;2022-07-29T01:41:35;4.53;;;2.42;;
40729;SDS011;26418;50.070;8.436;2022-07-29T01:44:48;3.47;;;2.13;;
40729;SDS011;26418;50.070;8.436;2022-07-29T01:47:10;3.97;;;2.20;;
40729;SDS011;26418;50.070;8.436;2022-07-29T01:49:40;4.53;;;2.00;;
40729;SDS011;26418;50.070;8.436;2022-07-29T01:54:45;3.13;;;1.98;;
40729;SDS011;26418;50.070;8.436;2022-07-29T01:57:16;5.25;;;2.30;;
40729;SDS011;26418;50.070;8.436;2022-07-29T01:59:46;3.70;;;1.80;;
40729;SDS011;26418;50.070;8.436;2022-07-29T02:02:14;4.63;;;2.38;;
40729;SDS011;26418;50.070;8.436;2022-07-29T02:04:41;5.30;;;2.22;;
40729;SDS011;26418;50.070;8.436;2022-07-29T02:07:10;5.90;;;2.28;;
40729;SDS011;26418;50.070;8.436;2022-07-29T02:09:39;3.38;;;2.08;;
40729;SDS011;26418;50.070;8.436;2022-07-29T02:12:06;8.10;;;2.53;;
40729;SDS011;26418;50.070;8.436;2022-07-29T02:14:34;12.32;;;2.63;;
40729;SDS011;26418;50.070;8.436;2022-07-29T02:17:03;2.63;;;2.05;;
40729;SDS011;26418;50.070;8.436;2022-07-29T02:19:30;4.85;;;2.45;;
40729;SDS011;26418;50.070;8.436;2022-07-29T02:21:58;6.63;;;2.28;;
40729;SDS011;26418;50.070;8.436;2022-07-29T02:24:25;6.50;;;2.58;;
40729;SDS011;26418;50.070;8.436;2022-07-29T02:26:52;6.65;;;2.60;;
40729;SDS011;26418;50.070;8.436;2022-07-29T02:29:23;8.15;;;2.50;;
40729;SDS011;26418;50.070;8.436;2022-07-29T02:31:51;7.13;;;2.30;;
40729;SDS011;26418;50.070;8.436;2022-07-29T02:34:19;4.97;;;2.05;;
40729;SDS011;26418;50.070;8.436;2022-07-29T02:36:46;5.68;;;3.03;;
40729;SDS011;26418;50.070;8.436;2022-07-29T02:39:12;5.85;;;2.47;;
40729;SDS011;26418;50.070;8.436;2022-07-29T02:41:44;5.30;;;2.83;;
40729;SDS011;26418;50.070;8.436;2022-07-29T02:44:12;5.68;;;3.03;;
40729;SDS011;26418;50.070;8.436;2022-07-29T02:47:23;6.40;;;2.80;;
40729;SDS011;26418;50.070;8.436;2022-07-29T02:49:36;5.00;;;3.00;;
40729;SDS011;26418;50.070;8.436;2022-07-29T02:52:25;8.00;;;2.42;;
40729;SDS011;26418;50.070;8.436;2022-07-29T02:54:53;6.50;;;2.70;;
40729;SDS011;26418;50.070;8.436;2022-07-29T02:57:33;4.05;;;2.65;;
40729;SDS011;26418;50.070;8.436;2022-07-29T03:00:06;5.32;;;2.65;;
40729;SDS011;26418;50.070;8.436;2022-07-29T03:02:34;9.90;;;3.05;;
40729;SDS011;26418;50.070;8.436;2022-07-29T03:05:02;6.20;;;3.00;;
40729;SDS011;26418;50.070;8.436;2022-07-29T03:07:29;5.22;;;2.80;;
40729;SDS011;26418;50.070;8.436;2022-07-29T03:09:55;5.15;;;2.80;;
40729;SDS011;26418;50.070;8.436;2022-07-29T03:12:22;5.82;;;3.38;;
40729;SDS011;26418;50.070;8.436;2022-07-29T03:14:48;4.03;;;2.80;;
40729;SDS011;26418;50.070;8.436;2022-07-29T03:17:14;6.60;;;3.20;;
40729;SDS011;26418;50.070;8.436;2022-07-29T03:19:41;4.28;;;2.65;;
40729;SDS011;26418;50.070;8.436;2022-07-29T03:22:07;6.80;;;3.10;;
40729;SDS011;26418;50.070;8.436;2022-07-29T03:24:34;7.28;;;3.13;;
40729;SDS011;26418;50.070;8.436;2022-07-29T03:27:01;5.40;;;3.42;;
40729;SDS011;26418;50.070;8.436;2022-07-29T03:29:28;5.82;;;2.85;;
40729;SDS011;26418;50.070;8.436;2022-07-29T03:31:54;7.00;;;3.55;;
40729;SDS011;26418;50.070;8.436;2022-07-29T03:34:20;7.20;;;3.13;;
40729;SDS011;26418;50.070;8.436;2022-07-29T03:36:45;4.20;;;3.10;;
40729;SDS011;26418;50.070;8.436;2022-07-29T03:39:11;7.97;;;3.45;;
40729;SDS011;26418;50.070;8.436;2022-07-29T03:41:42;5.13;;;2.90;;
40729;SDS011;26418;50.070;8.436;2022-07-29T03:44:10;5.10;;;2.90;;
40729;SDS011;26418;50.070;8.436;2022-07-29T03:46:38;4.78;;;3.33;;
40729;SDS011;26418;50.070;8.436;2022-07-29T03:49:06;6.43;;;3.28;;
40729;SDS011;26418;50.070;8.436;2022-07-29T03:51:35;5.32;;;3.50;;
40729;SDS011;26418;50.070;8.436;2022-07-29T03:54:01;7.80;;;3.35;;
40729;SDS011;26418;50.070;8.436;2022-07-29T03:56:30;7.85;;;3.47;;
40729;SDS011;26418;50.070;8.436;2022-07-29T03:58:59;3.30;;;3.00;;
40729;SDS011;26418;50.070;8.436;2022-07-29T04:01:27;8.25;;;3.47;;
40729;SDS011;26418;50.070;8.436;2022-07-29T04:03:53;5.95;;;3.17;;
40729;SDS011;26418;50.070;8.436;2022-07-29T04:06:18;4.15;;;3.47;;
40729;SDS011;26418;50.070;8.436;2022-07-29T04:08:44;4.13;;;3.03;;
40729;SDS011;26418;50.070;8.436;2022-07-29T04:11:09;5.20;;;3.42;;
40729;SDS011;26418;50.070;8.436;2022-07-29T04:13:35;5.70;;;3.05;;
40729;SDS011;26418;50.070;8.436;2022-07-29T04:16:00;7.82;;;3.30;;
40729;SDS011;26418;50.070;8.436;2022-07-29T04:18:26;10.95;;;3.75;;
40729;SDS011;26418;50.070;8.436;2022-07-29T04:20:52;5.82;;;3.13;;
40729;SDS011;26418;50.070;8.436;2022-07-29T04:23:18;9.95;;;3.63;;
40729;SDS011;26418;50.070;8.436;2022-07-29T04:25:43;5.55;;;3.25;;
40729;SDS011;26418;50.070;8.436;2022-07-29T04:28:09;3.88;;;2.92;;
40729;SDS011;26418;50.070;8.436;2022-07-29T04:30:35;3.30;;;2.90;;
40729;SDS011;26418;50.070;8.436;2022-07-29T04:33:02;6.00;;;3.72;;
40729;SDS011;26418;50.070;8.436;2022-07-29T04:35:29;6.50;;;3.42;;
40729;SDS011;26418;50.070;8.436;2022-07-29T04:37:55;7.82;;;3.85;;
40729;SDS011;26418;50.070;8.436;2022-07-29T04:40:21;7.25;;;3.63;;
40729;SDS011;26418;50.070;8.436;2022-07-29T04:42:46;5.95;;;3.33;;
40729;SDS011;26418;50.070;8.436;2022-07-29T04:45:11;4.93;;;3.35;;
40729;SDS011;26418;50.070;8.436;2022-07-29T04:47:37;9.52;;;3.25;;
40729;SDS011;26418;50.070;8.436;2022-07-29T04:50:02;4.85;;;3.63;;
40729;SDS011;26418;50.070;8.436;2022-07-29T04:52:30;7.82;;;3.60;;
40729;SDS011;26418;50.070;8.436;2022-07-29T04:54:55;4.93;;;3.03;;
40729;SDS011;26418;50.070;8.436;2022-07-29T04:57:21;6.38;;;3.42;;
40729;SDS011;26418;50.070;8.436;2022-07-29T04:59:46;4.38;;;3.40;;
40729;SDS011;26418;50.070;8.436;2022-07-29T05:02:12;5.47;;;3.72;;
40729;SDS011;26418;50.070;8.436;2022-07-29T05:04:37;7.60;;;3.15;;
40729;SDS011;26418;50.070;8.436;2022-07-29T05:07:02;4.88;;;3.50;;
40729;SDS011;26418;50.070;8.436;2022-07-29T05:09:28;7.55;;;3.58;;
40729;SDS011;26418;50.070;8.436;2022-07-29T05:11:53;6.05;;;3.53;;
40729;SDS011;26418;50.070;8.436;2022-07-29T05:14:19;7.25;;;3.55;;
40729;SDS011;26418;50.070;8.436;2022-07-29T05:16:44;6.97;;;3.72;;
40729;SDS011;26418;50.070;8.436;2022-07-29T05:19:10;7.03;;;4.00;;
40729;SDS011;26418;50.070;8.436;2022-07-29T05:21:35;7.40;;;3.55;;
40729;SDS011;26418;50.070;8.436;2022-07-29T05:24:01;8.25;;;3.42;;
40729;SDS011;26418;50.070;8.436;2022-07-29T05:26:26;4.55;;;3.00;;
40729;SDS011;26418;50.070;8.436;2022-07-29T05:28:52;6.07;;;3.17;;
40729;SDS011;26418;50.070;8.436;2022-07-29T05:31:18;6.10;;;3.40;;
40729;SDS011;26418;50.070;8.436;2022-07-29T05:33:44;10.48;;;3.70;;
40729;SDS011;26418;50.070;8.436;2022-07-29T05:36:09;6.53;;;3.25;;
40729;SDS011;26418;50.070;8.436;2022-07-29T05:38:35;11.02;;;4.15;;
40729;SDS011;26418;50.070;8.436;2022-07-29T05:41:01;6.18;;;2.97;;
40729;SDS011;26418;50.070;8.436;2022-07-29T05:43:27;10.80;;;3.50;;
40729;SDS011;26418;50.070;8.436;2022-07-29T05:45:53;7.97;;;3.80;;
40729;SDS011;26418;50.070;8.436;2022-07-29T05:48:19;5.60;;;3.67;;
40729;SDS011;26418;50.070;8.436;2022-07-29T05:50:44;6.47;;;3.60;;
40729;SDS011;26418;50.070;8.436;2022-07-29T05:53:10;10.93;;;3.88;;
40729;SDS011;26418;50.070;8.436;2022-07-29T05:55:35;4.60;;;3.38;;
40729;SDS011;26418;50.070;8.436;2022-07-29T05:58:01;18.70;;;4.10;;
40729;SDS011;26418;50.070;8.436;2022-07-29T06:00:26;12.75;;;4.05;;
40729;SDS011;26418;50.070;8.436;2022-07-29T06:02:51;7.45;;;3.03;;
40729;SDS011;26418;50.070;8.436;2022-07-29T06:05:17;6.50;;;3.20;;
40729;SDS011;26418;50.070;8.436;2022-07-29T06:07:42;5.97;;;3.03;;
40729;SDS011;26418;50.070;8.436;2022-07-29T06:10:08;7.80;;;3.30;;
40729;SDS011;26418;50.070;8.436;2022-07-29T06:12:34;7.13;;;3.55;;
40729;SDS011;26418;50.070;8.436;2022-07-29T06:14:59;6.35;;;3.40;;
40729;SDS011;26418;50.070;8.436;2022-07-29T06:17:25;7.53;;;3.05;;
40729;SDS011;26418;50.070;8.436;2022-07-29T06:19:50;7.68;;;2.83;;
40729;SDS011;26418;50.070;8.436;2022-07-29T06:22:16;7.00;;;3.00;;
40729;SDS011;26418;50.070;8.436;2022-07-29T06:24:42;3.35;;;2.65;;
40729;SDS011;26418;50.070;8.436;2022-07-29T06:27:09;7.90;;;3.00;;
40729;SDS011;26418;50.070;8.436;2022-07-29T06:29:35;6.07;;;3.53;;
40729;SDS011;26418;50.070;8.436;2022-07-29T06:32:01;7.10;;;3.22;;
40729;SDS011;26418;50.070;8.436;2022-07-29T06:34:27;4.28;;;2.90;;
40729;SDS011;26418;50.070;8.436;2022-07-29T06:36:53;5.45;;;2.83;;
40729;SDS011;26418;50.070;8.436;2022-07-29T06:39:18;6.30;;;2.55;;
40729;SDS011;26418;50.070;8.436;2022-07-29T06:41:47;5.22;;;2.40;;
40729;SDS011;26418;50.070;8.436;2022-07-29T06:44:14;5.95;;;3.30;;
40729;SDS011;26418;50.070;8.436;2022-07-29T06:46:40;8.38;;;2.72;;
40729;SDS011;26418;50.070;8.436;2022-07-29T06:49:06;6.53;;;2.47;;
40729;SDS011;26418;50.070;8.436;2022-07-29T06:51:32;8.95;;;2.83;;
40729;SDS011;26418;50.070;8.436;2022-07-29T06:53:57;3.00;;;2.17;;
40729;SDS011;26418;50.070;8.436;2022-07-29T06:56:23;3.83;;;2.28;;
40729;SDS011;26418;50.070;8.436;2022-07-29T06:58:49;6.00;;;2.72;;
40729;SDS011;26418;50.070;8.436;2022-07-29T07:01:14;2.83;;;2.30;;
40729;SDS011;26418;50.070;8.436;2022-07-29T07:03:40;12.13;;;2.90;;
40729;SDS011;26418;50.070;8.436;2022-07-29T07:06:06;5.45;;;3.22;;
40729;SDS011;26418;50.070;8.436;2022-07-29T07:08:32;5.97;;;2.47;;
40729;SDS011;26418;50.070;8.436;2022-07-29T07:10:57;3.92;;;2.50;;
40729;SDS011;26418;50.070;8.436;2022-07-29T07:13:23;8.43;;;2.53;;
40729;SDS011;26418;50.070;8.436;2022-07-29T07:15:49;5.75;;;2.78;;
40729;SDS011;26418;50.070;8.436;2022-07-29T07:18:16;6.10;;;2.38;;
40729;SDS011;26418;50.070;8.436;2022-07-29T07:20:42;4.78;;;2.72;;
40729;SDS011;26418;50.070;8.436;2022-07-29T07:23:08;6.70;;;2.95;;
40729;SDS011;26418;50.070;8.436;2022-07-29T07:25:33;7.70;;;2.85;;
40729;SDS011;26418;50.070;8.436;2022-07-29T07:27:59;4.78;;;2.90;;
40729;SDS011;26418;50.070;8.436;2022-07-29T07:30:24;11.05;;;2.72;;
40729;SDS011;26418;50.070;8.436;2022-07-29T07:32:50;6.53;;;2.60;;
40729;SDS011;26418;50.070;8.436;2022-07-29T07:35:16;7.00;;;2.40;;
40729;SDS011;26418;50.070;8.436;2022-07-29T07:37:41;5.20;;;3.00;;
40729;SDS011;26418;50.070;8.436;2022-07-29T07:40:07;7.10;;;2.78;;
40729;SDS011;26418;50.070;8.436;2022-07-29T07:42:34;5.93;;;3.10;;
40729;SDS011;26418;50.070;8.436;2022-07-29T07:44:59;4.03;;;2.55;;
40729;SDS011;26418;50.070;8.436;2022-07-29T07:47:25;2.90;;;2.10;;
40729;SDS011;26418;50.070;8.436;2022-07-29T07:49:51;8.50;;;2.85;;
40729;SDS011;26418;50.070;8.436;2022-07-29T07:52:17;6.88;;;2.83;;
40729;SDS011;26418;50.070;8.436;2022-07-29T07:54:44;7.05;;;2.67;;
40729;SDS011;26418;50.070;8.436;2022-07-29T07:57:10;3.50;;;2.40;;
40729;SDS011;26418;50.070;8.436;2022-07-29T07:59:36;4.00;;;2.38;;
40729;SDS011;26418;50.070;8.436;2022-07-29T08:02:01;6.32;;;2.60;;
40729;SDS011;26418;50.070;8.436;2022-07-29T08:04:27;6.45;;;2.60;;
40729;SDS011;26418;50.070;8.436;2022-07-29T08:06:53;3.70;;;2.35;;
40729;SDS011;26418;50.070;8.436;2022-07-29T08:09:22;8.32;;;2.63;;
40729;SDS011;26418;50.070;8.436;2022-07-29T08:11:48;2.67;;;2.20;;
40729;SDS011;26418;50.070;8.436;2022-07-29T08:14:14;4.75;;;2.60;;
40729;SDS011;26418;50.070;8.436;2022-07-29T08:16:40;5.05;;;2.80;;
40729;SDS011;26418;50.070;8.436;2022-07-29T08:19:06;7.88;;;2.17;;
40729;SDS011;26418;50.070;8.436;2022-07-29T08:21:31;5.53;;;3.13;;
40729;SDS011;26418;50.070;8.436;2022-07-29T08:23:57;4.10;;;2.78;;
40729;SDS011;26418;50.070;8.436;2022-07-29T08:26:42;4.97;;;2.28;;
40729;SDS011;26418;50.070;8.436;2022-07-29T08:29:08;5.05;;;2.42;;
40729;SDS011;26418;50.070;8.436;2022-07-29T08:31:34;4.82;;;2.70;;
40729;SDS011;26418;50.070;8.436;2022-07-29T08:34:01;6.97;;;2.95;;
40729;SDS011;26418;50.070;8.436;2022-07-29T08:36:27;5.65;;;2.65;;
40729;SDS011;26418;50.070;8.436;2022-07-29T08:38:53;4.25;;;2.58;;
40729;SDS011;26418;50.070;8.436;2022-07-29T08:41:19;6.38;;;2.90;;
40729;SDS011;26418;50.070;8.436;2022-07-29T08:43:45;3.72;;;2.13;;
40729;SDS011;26418;50.070;8.436;2022-07-29T08:46:11;6.85;;;3.22;;
40729;SDS011;26418;50.070;8.436;2022-07-29T08:48:36;7.40;;;2.50;;
40729;SDS011;26418;50.070;8.436;2022-07-29T08:51:03;5.25;;;2.67;;
40729;SDS011;26418;50.070;8.436;2022-07-29T08:53:32;6.07;;;3.42;;
40729;SDS011;26418;50.070;8.436;2022-07-29T08:55:58;7.80;;;3.00;;
40729;SDS011;26418;50.070;8.436;2022-07-29T08:58:25;7.25;;;2.70;;
40729;SDS011;26418;50.070;8.436;2022-07-29T09:03:25;6.10;;;3.17;;
40729;SDS011;26418;50.070;8.436;2022-07-29T09:05:55;6.15;;;2.65;;
40729;SDS011;26418;50.070;8.436;2022-07-29T09:08:24;5.10;;;2.75;;
40729;SDS011;26418;50.070;8.436;2022-07-29T09:10:50;5.15;;;2.70;;
40729;SDS011;26418;50.070;8.436;2022-07-29T09:13:16;7.93;;;2.22;;
40729;SDS011;26418;50.070;8.436;2022-07-29T09:15:43;3.78;;;2.30;;
40729;SDS011;26418;50.070;8.436;2022-07-29T09:18:10;7.32;;;2.60;;
40729;SDS011;26418;50.070;8.436;2022-07-29T09:20:35;6.05;;;2.63;;
40729;SDS011;26418;50.070;8.436;2022-07-29T09:23:19;4.15;;;2.70;;
40729;SDS011;26418;50.070;8.436;2022-07-29T09:25:44;12.55;;;3.30;;
40729;SDS011;26418;50.070;8.436;2022-07-29T09:28:11;10.73;;;3.20;;
40729;SDS011;26418;50.070;8.436;2022-07-29T09:30:53;5.18;;;2.72;;
40729;SDS011;26418;50.070;8.436;2022-07-29T09:33:31;6.68;;;2.67;;
40729;SDS011;26418;50.070;8.436;2022-07-29T09:36:05;6.45;;;3.15;;
40729;SDS011;26418;50.070;8.436;2022-07-29T09:38:32;9.45;;;3.13;;
40729;SDS011;26418;50.070;8.436;2022-07-29T09:41:00;7.25;;;3.38;;
40729;SDS011;26418;50.070;8.436;2022-07-29T09:43:27;5.55;;;3.50;;
40729;SDS011;26418;50.070;8.436;2022-07-29T09:45:53;5.78;;;2.80;;
40729;SDS011;26418;50.070;8.436;2022-07-29T09:48:20;5.40;;;3.00;;
40729;SDS011;26418;50.070;8.436;2022-07-29T09:50:48;6.25;;;2.63;;
40729;SDS011;26418;50.070;8.436;2022-07-29T09:53:30;5.88;;;2.90;;
40729;SDS011;26418;50.070;8.436;2022-07-29T09:56:00;4.93;;;2.83;;
40729;SDS011;26418;50.070;8.436;2022-07-29T09:58:26;5.88;;;2.88;;
40729;SDS011;26418;50.070;8.436;2022-07-29T10:00:52;6.15;;;2.80;;
40729;SDS011;26418;50.070;8.436;2022-07-29T10:03:19;11.68;;;3.20;;
40729;SDS011;26418;50.070;8.436;2022-07-29T10:05:46;4.90;;;2.83;;
40729;SDS011;26418;50.070;8.436;2022-07-29T10:08:28;3.25;;;2.63;;
40729;SDS011;26418;50.070;8.436;2022-07-29T10:11:02;3.28;;;2.42;;
40729;SDS011;26418;50.070;8.436;2022-07-29T10:13:35;5.10;;;2.47;;
40729;SDS011;26418;50.070;8.436;2022-07-29T10:16:01;5.22;;;3.58;;
40729;SDS011;26418;50.070;8.436;2022-07-29T10:18:27;5.05;;;2.63;;
40729;SDS011;26418;50.070;8.436;2022-07-29T10:20:53;8.15;;;3.17;;
40729;SDS011;26418;50.070;8.436;2022-07-29T10:23:19;6.13;;;3.28;;
40729;SDS011;26418;50.070;8.436;2022-07-29T10:25:45;4.53;;;3.17;;
40729;SDS011;26418;50.070;8.436;2022-07-29T10:28:11;4.63;;;2.83;;
40729;SDS011;26418;50.070;8.436;2022-07-29T10:30:37;4.57;;;2.80;;
40729;SDS011;26418;50.070;8.436;2022-07-29T10:35:40;6.28;;;3.38;;
40729;SDS011;26418;50.070;8.436;2022-07-29T10:38:34;14.77;;;3.08;;
40729;SDS011;26418;50.070;8.436;2022-07-29T10:43:53;5.25;;;3.25;;
40729;SDS011;26418;50.070;8.436;2022-07-29T10:46:21;4.43;;;3.15;;
40729;SDS011;26418;50.070;8.436;2022-07-29T10:54:42;4.60;;;2.83;;
40729;SDS011;26418;50.070;8.436;2022-07-29T10:57:29;7.65;;;3.28;;
40729;SDS011;26418;50.070;8.436;2022-07-29T11:05:10;4.82;;;2.42;;
40729;SDS011;26418;50.070;8.436;2022-07-29T11:08:16;5.38;;;2.95;;
40729;SDS011;26418;50.070;8.436;2022-07-29T11:10:40;4.57;;;2.72;;
40729;SDS011;26418;50.070;8.436;2022-07-29T11:13:06;6.38;;;3.08;;
40729;SDS011;26418;50.070;8.436;2022-07-29T11:18:22;3.97;;;2.78;;
40729;SDS011;26418;50.070;8.436;2022-07-29T11:20:49;5.93;;;3.28;;
40729;SDS011;26418;50.070;8.436;2022-07-29T11:34:24;3.83;;;2.97;;
40729;SDS011;26418;50.070;8.436;2022-07-29T11:39:45;5.10;;;4.05;;
40729;SDS011;26418;50.070;8.436;2022-07-29T11:49:55;4.78;;;3.15;;
40729;SDS011;26418;50.070;8.436;2022-07-29T11:52:46;6.03;;;3.20;;
40729;SDS011;26418;50.070;8.436;2022-07-29T11:55:15;5.65;;;3.22;;
40729;SDS011;26418;50.070;8.436;2022-07-29T11:57:45;5.25;;;2.85;;
40729;SDS011;26418;50.070;8.436;2022-07-29T12:00:12;4.53;;;2.97;;
40729;SDS011;26418;50.070;8.436;2022-07-29T12:02:50;5.68;;;3.30;;
40729;SDS011;26418;50.070;8.436;2022-07-29T12:05:18;6.80;;;2.92;;
40729;SDS011;26418;50.070;8.436;2022-07-29T12:07:45;5.38;;;3.20;;
40729;SDS011;26418;50.070;8.436;2022-07-29T12:10:11;3.97;;;2.92;;
40729;SDS011;26418;50.070;8.436;2022-07-29T12:12:37;3.42;;;2.80;;
40729;SDS011;26418;50.070;8.436;2022-07-29T12:15:10;8.93;;;3.38;;
40729;SDS011;26418;50.070;8.436;2022-07-29T12:17:38;6.43;;;3.08;;
40729;SDS011;26418;50.070;8.436;2022-07-29T12:20:04;5.22;;;3.45;;
40729;SDS011;26418;50.070;8.436;2022-07-29T12:22:37;6.53;;;2.75;;
40729;SDS011;26418;50.070;8.436;2022-07-29T12:25:07;5.97;;;3.42;;
40729;SDS011;26418;50.070;8.436;2022-07-29T12:27:35;3.67;;;3.13;;
40729;SDS011;26418;50.070;8.436;2022-07-29T12:30:05;5.20;;;3.08;;
40729;SDS011;26418;50.070;8.436;2022-07-29T12:32:37;4.50;;;3.28;;
40729;SDS011;26418;50.070;8.436;2022-07-29T12:35:07;6.03;;;2.97;;
40729;SDS011;26418;50.070;8.436;2022-07-29T12:37:34;3.55;;;3.22;;
40729;SDS011;26418;50.070;8.436;2022-07-29T12:40:05;9.85;;;3.17;;
40729;SDS011;26418;50.070;8.436;2022-07-29T12:42:32;9.93;;;3.97;;
40729;SDS011;26418;50.070;8.436;2022-07-29T12:44:58;4.50;;;3.50;;
40729;SDS011;26418;50.070;8.436;2022-07-29T12:47:24;5.70;;;3.20;;
40729;SDS011;26418;50.070;8.436;2022-07-29T12:49:50;3.45;;;2.97;;
40729;SDS011;26418;50.070;8.436;2022-07-29T12:52:32;6.72;;;3.70;;
40729;SDS011;26418;50.070;8.436;2022-07-29T12:55:00;4.97;;;3.97;;
40729;SDS011;26418;50.070;8.436;2022-07-29T12:57:26;5.53;;;3.17;;
40729;SDS011;26418;50.070;8.436;2022-07-29T13:00:09;5.28;;;3.10;;
40729;SDS011;26418;50.070;8.436;2022-07-29T13:02:38;5.45;;;3.42;;
40729;SDS011;26418;50.070;8.436;2022-07-29T13:05:04;6.93;;;3.67;;
40729;SDS011;26418;50.070;8.436;2022-07-29T13:07:31;3.97;;;3.55;;
40729;SDS011;26418;50.070;8.436;2022-07-29T13:10:09;4.47;;;3.03;;
40729;SDS011;26418;50.070;8.436;2022-07-29T13:12:37;6.25;;;3.22;;
40729;SDS011;26418;50.070;8.436;2022-07-29T13:15:15;2.88;;;2.58;;
40729;SDS011;26418;50.070;8.436;2022-07-29T13:17:42;3.85;;;3.45;;
40729;SDS011;26418;50.070;8.436;2022-07-29T13:20:11;4.85;;;3.35;;
40729;SDS011;26418;50.070;8.436;2022-07-29T13:22:38;7.75;;;3.20;;
40729;SDS011;26418;50.070;8.436;2022-07-29T13:25:08;5.05;;;3.20;;
40729;SDS011;26418;50.070;8.436;2022-07-29T13:27:35;8.18;;;3.50;;
40729;SDS011;26418;50.070;8.436;2022-07-29T13:30:04;5.47;;;2.97;;
40729;SDS011;26418;50.070;8.436;2022-07-29T13:35:00;3.25;;;2.85;;
40729;SDS011;26418;50.070;8.436;2022-07-29T13:37:27;7.00;;;3.17;;
40729;SDS011;26418;50.070;8.436;2022-07-29T13:39:54;4.30;;;3.55;;
40729;SDS011;26418;50.070;8.436;2022-07-29T13:42:21;11.82;;;3.63;;
40729;SDS011;26418;50.070;8.436;2022-07-29T13:44:47;7.85;;;3.72;;
40729;SDS011;26418;50.070;8.436;2022-07-29T13:47:13;4.55;;;3.67;;
40729;SDS011;26418;50.070;8.436;2022-07-29T13:49:41;6.15;;;3.50;;
40729;SDS011;26418;50.070;8.436;2022-07-29T13:52:06;6.57;;;3.42;;
40729;SDS011;26418;50.070;8.436;2022-07-29T13:54:32;10.52;;;3.65;;
40729;SDS011;26418;50.070;8.436;2022-07-29T13:57:01;5.93;;;3.75;;
40729;SDS011;26418;50.070;8.436;2022-07-29T13:59:26;5.68;;;3.47;;
40729;SDS011;26418;50.070;8.436;2022-07-29T14:01:54;7.65;;;4.20;;
40729;SDS011;26418;50.070;8.436;2022-07-29T14:04:20;8.18;;;3.58;;
40729;SDS011;26418;50.070;8.436;2022-07-29T14:06:46;5.38;;;3.30;;
40729;SDS011;26418;50.070;8.436;2022-07-29T14:09:12;6.35;;;4.18;;
40729;SDS011;26418;50.070;8.436;2022-07-29T14:11:37;8.48;;;4.10;;
40729;SDS011;26418;50.070;8.436;2022-07-29T14:14:03;5.85;;;3.45;;
40729;SDS011;26418;50.070;8.436;2022-07-29T14:16:29;7.22;;;4.10;;
40729;SDS011;26418;50.070;8.436;2022-07-29T14:19:00;4.30;;;3.53;;
40729;SDS011;26418;50.070;8.436;2022-07-29T14:21:26;7.82;;;3.70;;
40729;SDS011;26418;50.070;8.436;2022-07-29T14:23:51;6.10;;;3.50;;
40729;SDS011;26418;50.070;8.436;2022-07-29T14:26:17;7.95;;;3.67;;
40729;SDS011;26418;50.070;8.436;2022-07-29T14:28:43;8.68;;;3.58;;
40729;SDS011;26418;50.070;8.436;2022-07-29T14:31:09;8.73;;;3.45;;
40729;SDS011;26418;50.070;8.436;2022-07-29T14:33:35;4.38;;;3.22;;
40729;SDS011;26418;50.070;8.436;2022-07-29T14:36:00;4.38;;;3.05;;
40729;SDS011;26418;50.070;8.436;2022-07-29T14:38:25;3.20;;;2.88;;
40729;SDS011;26418;50.070;8.436;2022-07-29T14:40:51;4.85;;;2.90;;
40729;SDS011;26418;50.070;8.436;2022-07-29T14:43:16;3.92;;;2.88;;
40729;SDS011;26418;50.070;8.436;2022-07-29T14:45:42;4.53;;;2.60;;
40729;SDS011;26418;50.070;8.436;2022-07-29T14:48:07;3.40;;;2.70;;
40729;SDS011;26418;50.070;8.436;2022-07-29T14:50:33;5.85;;;2.80;;
40729;SDS011;26418;50.070;8.436;2022-07-29T14:53:01;2.78;;;2.42;;
40729;SDS011;26418;50.070;8.436;2022-07-29T14:55:27;4.22;;;2.55;;
40729;SDS011;26418;50.070;8.436;2022-07-29T14:57:53;5.32;;;2.35;;
40729;SDS011;26418;50.070;8.436;2022-07-29T15:00:19;5.10;;;2.92;;
40729;SDS011;26418;50.070;8.436;2022-07-29T15:02:45;4.38;;;2.50;;
40729;SDS011;26418;50.070;8.436;2022-07-29T15:05:11;6.88;;;2.38;;
40729;SDS011;26418;50.070;8.436;2022-07-29T15:07:37;2.55;;;2.28;;
40729;SDS011;26418;50.070;8.436;2022-07-29T15:10:03;2.80;;;2.30;;
40729;SDS011;26418;50.070;8.436;2022-07-29T15:12:29;3.28;;;2.28;;
40729;SDS011;26418;50.070;8.436;2022-07-29T15:14:55;3.55;;;2.47;;
40729;SDS011;26418;50.070;8.436;2022-07-29T15:17:21;3.63;;;2.22;;
40729;SDS011;26418;50.070;8.436;2022-07-29T15:19:47;5.13;;;2.58;;
40729;SDS011;26418;50.070;8.436;2022-07-29T15:22:13;3.28;;;2.05;;
40729;SDS011;26418;50.070;8.436;2022-07-29T15:24:38;2.70;;;1.90;;
40729;SDS011;26418;50.070;8.436;2022-07-29T15:27:04;3.85;;;2.38;;
40729;SDS011;26418;50.070;8.436;2022-07-29T15:29:29;2.60;;;2.10;;
40729;SDS011;26418;50.070;8.436;2022-07-29T15:31:55;3.28;;;2.47;;
40729;SDS011;26418;50.070;8.436;2022-07-29T15:34:21;2.60;;;2.38;;
40729;SDS011;26418;50.070;8.436;2022-07-29T15:36:49;2.80;;;2.08;;
40729;SDS011;26418;50.070;8.436;2022-07-29T15:39:16;3.15;;;2.10;;
40729;SDS011;26418;50.070;8.436;2022-07-29T15:41:42;3.33;;;2.60;;
40729;SDS011;26418;50.070;8.436;2022-07-29T15:44:08;3.38;;;2.33;;
40729;SDS011;26418;50.070;8.436;2022-07-29T15:46:34;4.20;;;2.40;;
40729;SDS011;26418;50.070;8.436;2022-07-29T15:49:18;5.68;;;2.30;;
40729;SDS011;26418;50.070;8.436;2022-07-29T15:51:44;4.07;;;2.97;;
40729;SDS011;26418;50.070;8.436;2022-07-29T15:54:10;5.72;;;3.03;;